Time;durP1;ratioP1;P1;durP2;ratioP2;P2;SDS_P1;SDS_P2;PMS_P1;PMS_P2;Temp;Humidity;BMP_temperature;BMP_pressure;BME280_temperature;BME280_humidity;BME280_pressure;Samples;Min_cycle;Max_cycle;Signal;HPM_P1;HPM_P2
2023/02/26 00:00:57;;;;;;;0.55;0.55;;;;;;;2.63;85.55;100911.25;4989245;28;20189;-53
2023/02/26 00:03:22;;;;;;;0.30;0.30;;;;;;;2.59;85.69;100912.91;4988933;28;20034;-48
2023/02/26 00:05:48;;;;;;;0.30;0.30;;;;;;;2.60;85.51;100909.19;4988800;28;20374;-53
2023/02/26 00:08:13;;;;;;;0.40;0.40;;;;;;;2.63;85.39;100921.88;4989840;28;20061;-45
2023/02/26 00:10:39;;;;;;;0.38;0.38;;;;;;;2.66;84.99;100925.84;4988513;28;20120;-45
2023/02/26 00:13:05;;;;;;;0.30;0.30;;;;;;;2.63;84.71;100921.13;4989396;28;20042;-49
2023/02/26 00:15:30;;;;;;;0.30;0.30;;;;;;;2.58;84.82;100927.31;4989437;28;20507;-53
2023/02/26 00:18:08;;;;;;;0.20;0.20;;;;;;;2.55;84.77;100929.78;4987621;28;20038;-45
2023/02/26 00:20:35;;;;;;;0.30;0.30;;;;;;;2.47;85.37;100933.91;4988608;28;20480;-45
2023/02/26 00:23:01;;;;;;;0.30;0.30;;;;;;;2.46;85.51;100942.13;4989216;28;20034;-51
2023/02/26 00:25:26;;;;;;;0.40;0.40;;;;;;;2.43;85.39;100935.56;4989223;28;20097;-52
2023/02/26 00:27:52;;;;;;;0.52;0.52;;;;;;;2.30;85.56;100939.00;5003474;28;20045;-46
2023/02/26 00:30:18;;;;;;;0.40;0.40;;;;;;;2.33;85.63;100941.06;4989587;28;20034;-55
2023/02/26 00:32:44;;;;;;;0.40;0.40;;;;;;;2.34;85.72;100947.94;4975566;28;20034;-54
2023/02/26 00:35:12;;;;;;;0.40;0.40;;;;;;;2.38;85.79;100942.84;4987183;28;20065;-49
2023/02/26 00:38:04;;;;;;;0.50;0.50;;;;;;;2.39;85.34;100952.38;4987119;28;20492;-46
2023/02/26 00:40:39;;;;;;;0.30;0.30;;;;;;;2.41;85.52;100955.53;4987320;28;20057;-47
2023/02/26 00:43:08;;;;;;;0.30;0.30;;;;;;;2.40;85.17;100959.28;4985828;28;20343;-46
2023/02/26 00:45:34;;;;;;;0.40;0.40;;;;;;;2.45;84.92;100956.53;4980457;28;20039;-57
2023/02/26 00:48:11;;;;;;;0.30;0.30;;;;;;;2.39;84.95;100966.47;4985847;28;20041;-52
2023/02/26 00:50:45;;;;;;;0.30;0.30;;;;;;;2.38;84.81;100967.53;4987089;28;20068;-49
2023/02/26 00:53:34;;;;;;;0.30;0.30;;;;;;;2.32;85.16;100976.66;4989461;28;20031;-46
2023/02/26 00:56:00;;;;;;;0.40;0.40;;;;;;;2.39;84.72;100978.94;4987076;28;20044;-51
2023/02/26 00:58:25;;;;;;;0.30;0.30;;;;;;;2.38;84.48;100988.00;4986345;28;20026;-46
2023/02/26 01:00:51;;;;;;;0.30;0.30;;;;;;;2.24;84.85;100984.50;4989640;28;20030;-46
2023/02/26 01:03:16;;;;;;;0.40;0.40;;;;;;;2.25;85.11;100983.44;5003360;28;20046;-49
2023/02/26 01:05:42;;;;;;;0.40;0.40;;;;;;;2.26;84.80;100993.78;4987893;28;20473;-52
2023/02/26 01:08:20;;;;;;;0.30;0.30;;;;;;;2.27;84.85;100986.56;4988611;28;20505;-46
2023/02/26 01:10:46;;;;;;;0.30;0.30;;;;;;;2.24;84.68;100987.16;4985098;28;20034;-50
2023/02/26 01:13:12;;;;;;;0.40;0.40;;;;;;;2.23;84.67;100990.91;4996702;28;20034;-45
2023/02/26 01:15:42;;;;;;;0.40;0.40;;;;;;;2.25;84.13;100994.84;4988835;28;20113;-47
2023/02/26 01:18:20;;;;;;;0.40;0.40;;;;;;;2.22;84.29;100994.66;4988897;28;20053;-46
2023/02/26 01:21:02;;;;;;;0.40;0.40;;;;;;;2.15;84.63;101000.31;4988113;28;20113;-46
2023/02/26 01:23:34;;;;;;;0.40;0.40;;;;;;;2.14;84.44;100995.28;4995893;28;20512;-48
2023/02/26 01:26:05;;;;;;;0.30;0.30;;;;;;;2.11;84.66;101003.84;4989764;28;20030;-46
2023/02/26 01:28:31;;;;;;;0.40;0.40;;;;;;;2.12;84.74;101005.41;4989130;28;20117;-45
2023/02/26 01:31:01;;;;;;;0.30;0.30;;;;;;;2.00;84.45;101003.22;4987602;28;20476;-45
2023/02/26 01:33:31;;;;;;;0.30;0.30;;;;;;;2.07;84.65;101003.63;4986246;28;20046;-45
2023/02/26 01:36:07;;;;;;;0.50;0.50;;;;;;;2.12;84.09;101014.19;4985758;28;20035;-46
2023/02/26 01:38:54;;;;;;;0.40;0.40;;;;;;;2.21;84.18;101006.34;4989420;28;20568;-48
2023/02/26 01:41:32;;;;;;;0.90;0.68;;;;;;;2.22;83.98;101019.34;4988716;28;20030;-49
2023/02/26 01:44:09;;;;;;;0.45;0.45;;;;;;;2.28;83.33;101020.84;4978811;28;20042;-46
2023/02/26 01:47:01;;;;;;;0.40;0.40;;;;;;;2.13;82.72;101028.25;4987437;28;20034;-45
2023/02/26 01:49:27;;;;;;;0.40;0.40;;;;;;;1.84;81.79;101018.56;4990288;28;20034;-47
2023/02/26 01:52:01;;;;;;;0.30;0.30;;;;;;;1.96;83.04;101020.78;4990314;28;20504;-53
2023/02/26 01:54:35;;;;;;;0.38;0.38;;;;;;;2.03;82.82;101023.91;4984584;28;20060;-52
2023/02/26 01:57:04;;;;;;;0.28;0.28;;;;;;;2.14;82.01;101022.66;4988879;28;20033;-47
2023/02/26 01:59:31;;;;;;;0.30;0.30;;;;;;;2.09;81.72;101024.59;4987189;28;20030;-53
2023/02/26 02:02:01;;;;;;;0.30;0.30;;;;;;;2.07;80.71;101024.09;4985314;28;20044;-52
2023/02/26 02:04:26;;;;;;;0.40;0.40;;;;;;;2.12;80.61;101026.66;4988164;28;20181;-51
2023/02/26 02:06:53;;;;;;;0.40;0.40;;;;;;;2.07;79.53;101029.41;4989522;28;20366;-46
2023/02/26 02:09:19;;;;;;;0.43;0.43;;;;;;;2.16;79.80;101031.13;4989306;28;20037;-48
2023/02/26 02:11:55;;;;;;;0.30;0.30;;;;;;;2.26;79.04;101038.13;4997382;28;20034;-52
2023/02/26 02:14:37;;;;;;;0.32;0.32;;;;;;;2.26;78.10;101043.44;4988170;28;20663;-54
2023/02/26 02:17:10;;;;;;;;;;;;;;;2.21;77.94;101039.00;4987543;28;20043;-49
2023/02/26 02:19:43;;;;;;;0.40;0.40;;;;;;;2.19;77.40;101053.66;4985101;28;20204;-51
2023/02/26 02:22:27;;;;;;;0.63;0.63;;;;;;;2.26;77.24;101056.75;4989361;28;20121;-51
2023/02/26 02:25:01;;;;;;;0.30;0.30;;;;;;;2.29;76.52;101056.16;5004570;28;20129;-46
2023/02/26 02:27:44;;;;;;;0.38;0.38;;;;;;;2.22;76.25;101063.69;4988447;28;20671;-51
2023/02/26 02:30:20;;;;;;;0.40;0.40;;;;;;;2.16;76.14;101064.84;4996816;28;20557;-53
2023/02/26 02:32:53;;;;;;;0.38;0.38;;;;;;;2.16;75.98;101063.00;4987281;28;20035;-53
2023/02/26 02:35:21;;;;;;;0.55;0.55;;;;;;;2.21;76.08;101070.06;4987970;28;20117;-46
2023/02/26 02:37:57;;;;;;;0.40;0.40;;;;;;;2.21;75.87;101078.03;4989011;28;20195;-50
2023/02/26 02:40:28;;;;;;;0.30;0.30;;;;;;;2.27;75.73;101082.22;4986298;28;20039;-46
2023/02/26 02:43:26;;;;;;;0.35;0.35;;;;;;;2.28;75.15;101084.59;4989171;28;21372;-48
2023/02/26 02:46:05;;;;;;;0.40;0.40;;;;;;;2.23;75.13;101084.66;5004842;28;20679;-46
2023/02/26 02:48:53;;;;;;;0.40;0.40;;;;;;;2.22;75.11;101091.06;4985695;28;20041;-53
2023/02/26 02:51:26;;;;;;;0.70;0.70;;;;;;;2.22;75.41;101095.56;4986522;28;20121;-52
2023/02/26 02:53:56;;;;;;;0.30;0.30;;;;;;;2.19;75.04;101101.47;4988585;28;20068;-48
2023/02/26 02:56:28;;;;;;;0.40;0.40;;;;;;;2.08;75.09;101102.66;4987831;28;20057;-48
2023/02/26 02:59:04;;;;;;;0.40;0.40;;;;;;;2.04;75.22;101114.94;4961111;28;20049;-51
2023/02/26 03:01:33;;;;;;;0.55;0.55;;;;;;;2.04;75.73;101106.97;4987346;28;20044;-49
2023/02/26 03:04:06;;;;;;;0.50;0.50;;;;;;;2.02;75.38;101123.19;4987424;28;20022;-51
2023/02/26 03:06:33;;;;;;;0.30;0.30;;;;;;;2.00;75.61;101113.94;4987430;28;20022;-47
2023/02/26 03:09:00;;;;;;;0.40;0.40;;;;;;;2.05;75.53;101127.97;4988680;28;20038;-51
2023/02/26 03:11:25;;;;;;;0.40;0.40;;;;;;;2.02;75.49;101127.72;4986888;28;20030;-54
2023/02/26 03:13:52;;;;;;;0.30;0.30;;;;;;;2.01;75.37;101136.75;4986524;28;20034;-49
2023/02/26 03:16:51;;;;;;;0.40;0.40;;;;;;;2.05;75.88;101143.09;4986565;28;20040;-49
2023/02/26 03:19:48;;;;;;;0.40;0.40;;;;;;;1.91;76.35;101145.66;4986782;28;20516;-46
2023/02/26 03:22:27;;;;;;;0.40;0.40;;;;;;;1.65;77.66;101147.00;4999932;28;20073;-51
2023/02/26 03:25:08;;;;;;;0.40;0.40;;;;;;;1.59;78.29;101146.28;5000704;28;20030;-56
2023/02/26 03:28:04;;;;;;;0.38;0.38;;;;;;;1.54;78.80;101142.91;4981849;28;20033;-49
2023/02/26 03:30:44;;;;;;;0.40;0.40;;;;;;;1.41;79.74;101146.25;4986868;28;20054;-45
2023/02/26 03:33:09;;;;;;;0.40;0.40;;;;;;;1.51;79.81;101146.13;4986986;28;20139;-54
2023/02/26 03:36:09;;;;;;;0.40;0.40;;;;;;;1.50;79.68;101148.00;5001057;28;20500;-48
2023/02/26 03:38:45;;;;;;;0.40;0.40;;;;;;;1.53;80.05;101151.94;5002484;28;20030;-46
2023/02/26 03:41:22;;;;;;;0.30;0.30;;;;;;;1.54;80.03;101151.66;4987278;28;20033;-48
2023/02/26 03:44:23;;;;;;;0.40;0.40;;;;;;;1.62;80.21;101156.34;4981598;28;20049;-48
2023/02/26 03:47:01;;;;;;;0.40;0.40;;;;;;;1.61;80.02;101154.75;4955938;28;20057;-46
2023/02/26 03:49:35;;;;;;;0.30;0.30;;;;;;;1.65;80.09;101170.91;5007096;28;20122;-48
2023/02/26 03:52:03;;;;;;;0.40;0.40;;;;;;;1.57;79.71;101172.31;4990232;28;20501;-45
2023/02/26 03:54:55;;;;;;;0.30;0.30;;;;;;;1.59;80.52;101175.47;4989307;28;20376;-52
2023/02/26 03:57:44;;;;;;;0.30;0.30;;;;;;;1.60;80.01;101185.03;4989488;28;20534;-52
2023/02/26 04:00:43;;;;;;;0.40;0.40;;;;;;;1.63;79.83;101189.75;4976175;23;20408;-53
2023/02/26 04:03:35;;;;;;;0.30;0.30;;;;;;;1.60;79.94;101190.34;5002116;28;20447;-58
2023/02/26 04:06:02;;;;;;;0.50;0.50;;;;;;;1.63;80.30;101194.28;4999372;28;20046;-57
2023/02/26 04:08:28;;;;;;;0.40;0.40;;;;;;;1.62;80.19;101201.47;5012007;28;20528;-58
2023/02/26 04:11:03;;;;;;;0.40;0.40;;;;;;;1.65;79.37;101208.84;4995747;28;20029;-58
2023/02/26 04:13:28;;;;;;;0.30;0.30;;;;;;;1.56;79.62;101199.94;5014469;28;20030;-58
2023/02/26 04:15:55;;;;;;;0.40;0.40;;;;;;;1.55;80.00;101203.63;4991962;28;20779;-57
2023/02/26 04:18:20;;;;;;;1.27;0.40;;;;;;;1.58;79.50;101208.41;4981773;28;20033;-58
2023/02/26 04:20:46;;;;;;;0.30;0.30;;;;;;;1.49;80.07;101209.28;5007359;28;20033;-58
2023/02/26 04:23:11;;;;;;;0.30;0.30;;;;;;;1.40;79.96;101216.25;5000515;28;20117;-57
2023/02/26 04:25:37;;;;;;;0.40;0.40;;;;;;;1.47;80.24;101217.50;5006566;28;20027;-58
2023/02/26 04:28:04;;;;;;;0.30;0.30;;;;;;;1.45;80.10;101217.00;5004855;28;20041;-56
2023/02/26 04:30:31;;;;;;;0.30;0.30;;;;;;;1.47;80.01;101214.84;4985857;28;20038;-58
2023/02/26 04:32:57;;;;;;;0.38;0.38;;;;;;;1.55;79.81;101227.53;5001327;28;20030;-58
2023/02/26 04:35:24;;;;;;;0.30;0.30;;;;;;;1.46;79.75;101223.09;4991023;28;20030;-57
2023/02/26 04:37:49;;;;;;;0.22;0.22;;;;;;;1.28;80.89;101229.88;4986372;28;20065;-57
2023/02/26 04:40:15;;;;;;;0.38;0.38;;;;;;;1.37;80.90;101233.53;4981363;28;20137;-57
2023/02/26 04:42:41;;;;;;;0.60;0.60;;;;;;;1.34;80.99;101233.28;4991547;28;20046;-57
2023/02/26 04:45:07;;;;;;;0.40;0.40;;;;;;;1.37;80.72;101244.16;4983019;28;20419;-58
2023/02/26 04:47:35;;;;;;;0.30;0.30;;;;;;;1.44;80.56;101239.31;4981336;28;20038;-56
2023/02/26 04:50:02;;;;;;;0.40;0.40;;;;;;;1.41;80.38;101242.53;5006219;28;20026;-58
2023/02/26 04:52:29;;;;;;;0.30;0.30;;;;;;;1.48;80.05;101244.84;4979547;28;20061;-58
2023/02/26 04:54:55;;;;;;;0.38;0.38;;;;;;;1.39;80.67;101252.63;5013337;28;20400;-58
2023/02/26 04:57:21;;;;;;;0.32;0.32;;;;;;;1.42;80.33;101254.72;5004541;28;20042;-58
2023/02/26 04:59:46;;;;;;;0.30;0.30;;;;;;;1.44;80.19;101260.53;4987459;28;20040;-57
2023/02/26 05:02:12;;;;;;;0.30;0.30;;;;;;;1.42;79.92;101267.97;5004519;28;20044;-58
2023/02/26 05:04:40;;;;;;;0.30;0.30;;;;;;;1.38;80.01;101271.44;4993773;28;20374;-56
2023/02/26 05:07:06;;;;;;;0.40;0.40;;;;;;;1.36;80.05;101277.03;4989923;28;20030;-58
2023/02/26 05:09:32;;;;;;;0.30;0.30;;;;;;;1.31;80.43;101278.94;4989115;28;20023;-56
2023/02/26 05:11:57;;;;;;;0.35;0.35;;;;;;;1.26;80.71;101271.81;5012416;28;20030;-57
2023/02/26 05:14:22;;;;;;;0.32;0.32;;;;;;;1.26;80.48;101279.78;4995104;28;20038;-57
2023/02/26 05:16:49;;;;;;;0.43;0.43;;;;;;;1.32;79.78;101283.97;5006313;28;20064;-58
2023/02/26 05:19:14;;;;;;;0.30;0.30;;;;;;;1.33;79.75;101296.19;5008473;28;20034;-57
2023/02/26 05:22:00;;;;;;;0.40;0.40;;;;;;;1.23;79.93;101293.59;5007946;28;20058;-54
2023/02/26 05:24:26;;;;;;;0.30;0.30;;;;;;;1.14;80.32;101300.56;4935609;29;20039;-57
2023/02/26 05:26:51;;;;;;;0.50;0.50;;;;;;;1.15;80.27;101301.34;4950111;28;20171;-54
2023/02/26 05:29:17;;;;;;;0.30;0.30;;;;;;;1.21;80.40;101295.72;4952774;28;20199;-57
2023/02/26 05:31:43;;;;;;;0.30;0.30;;;;;;;1.20;80.19;101301.31;4955330;28;20174;-57
2023/02/26 05:34:09;;;;;;;0.30;0.30;;;;;;;1.16;80.17;101294.97;4949090;28;20031;-57
2023/02/26 05:36:34;;;;;;;0.38;0.38;;;;;;;1.06;80.74;101295.84;4946565;28;20050;-58
2023/02/26 05:39:00;;;;;;;0.30;0.30;;;;;;;1.11;80.67;101303.75;4949247;28;20450;-57
2023/02/26 05:41:25;;;;;;;0.20;0.20;;;;;;;1.18;80.10;101292.84;4948389;29;20059;-57
2023/02/26 05:43:51;;;;;;;0.35;0.35;;;;;;;1.15;80.28;101304.78;4950176;29;20050;-57
2023/02/26 05:46:16;;;;;;;0.55;0.45;;;;;;;1.09;80.91;101321.00;4947984;28;20536;-59
2023/02/26 05:48:42;;;;;;;0.40;0.40;;;;;;;1.09;80.83;101318.34;4949536;29;20047;-57
2023/02/26 05:51:08;;;;;;;0.30;0.30;;;;;;;1.21;80.67;101321.44;4948310;29;20554;-58
2023/02/26 05:53:34;;;;;;;0.40;0.40;;;;;;;1.23;80.00;101321.97;4949013;29;20035;-58
2023/02/26 05:56:00;;;;;;;0.40;0.40;;;;;;;1.15;80.16;101333.94;4941573;28;20103;-57
2023/02/26 05:58:25;;;;;;;0.43;0.43;;;;;;;1.13;80.23;101344.03;4945480;29;20046;-57
2023/02/26 06:00:51;;;;;;;0.32;0.32;;;;;;;1.00;80.61;101344.66;4946795;28;20043;-58
2023/02/26 06:03:16;;;;;;;0.40;0.40;;;;;;;0.90;80.85;101344.69;4991624;28;20022;-55
2023/02/26 06:05:42;;;;;;;0.30;0.30;;;;;;;0.83;81.53;101350.28;4998458;28;20033;-56
2023/02/26 06:08:07;;;;;;;0.40;0.40;;;;;;;0.93;81.10;101353.97;4987044;28;20030;-59
2023/02/26 06:10:33;;;;;;;0.30;0.30;;;;;;;1.03;80.75;101346.75;4996246;28;20038;-56
2023/02/26 06:12:58;;;;;;;0.32;0.32;;;;;;;1.00;80.84;101349.97;4988595;28;20039;-57
2023/02/26 06:15:24;;;;;;;0.30;0.30;;;;;;;1.04;80.38;101356.31;4986435;28;20061;-56
2023/02/26 06:17:49;;;;;;;0.30;0.30;;;;;;;1.10;79.96;101363.16;4990375;28;20038;-54
2023/02/26 06:20:15;;;;;;;0.43;0.43;;;;;;;1.07;80.67;101370.84;4989823;28;20035;-58
2023/02/26 06:22:41;;;;;;;0.30;0.30;;;;;;;1.08;80.34;101365.28;4987390;28;20121;-59
2023/02/26 06:25:07;;;;;;;0.40;0.40;;;;;;;1.07;80.19;101376.16;4992549;28;20398;-58
2023/02/26 06:27:32;;;;;;;0.50;0.50;;;;;;;1.07;80.17;101384.91;4994452;28;20034;-52
2023/02/26 06:29:58;;;;;;;0.43;0.43;;;;;;;1.08;80.51;101375.09;4992433;28;20030;-57
2023/02/26 06:32:23;;;;;;;0.30;0.30;;;;;;;0.96;80.30;101379.94;4989159;28;20034;-58
2023/02/26 06:34:48;;;;;;;0.30;0.30;;;;;;;0.92;80.72;101390.28;4992090;28;20109;-57
2023/02/26 06:37:15;;;;;;;0.40;0.40;;;;;;;0.98;80.97;101399.81;4981403;28;20050;-55
2023/02/26 06:39:43;;;;;;;0.40;0.40;;;;;;;0.95;81.03;101405.63;4989081;28;20041;-55
2023/02/26 06:42:08;;;;;;;0.32;0.32;;;;;;;0.81;80.89;101402.78;4989295;28;20109;-56
2023/02/26 06:44:34;;;;;;;0.30;0.30;;;;;;;0.84;81.03;101404.91;4986544;28;20125;-58
2023/02/26 06:46:59;;;;;;;0.35;0.35;;;;;;;0.95;80.38;101413.59;4986724;28;20030;-58
2023/02/26 06:49:25;;;;;;;0.70;0.70;;;;;;;1.03;80.53;101418.31;4979799;28;20038;-54
2023/02/26 06:51:50;;;;;;;0.40;0.40;;;;;;;0.93;81.11;101424.47;4985219;28;20548;-54
2023/02/26 06:54:16;;;;;;;0.40;0.40;;;;;;;0.98;81.20;101425.50;4988023;28;20151;-57
2023/02/26 06:56:41;;;;;;;0.40;0.40;;;;;;;1.07;81.17;101426.53;4983429;28;20031;-54
2023/02/26 06:59:07;;;;;;;0.40;0.40;;;;;;;1.11;80.40;101431.03;4994887;28;20030;-57
2023/02/26 07:01:32;;;;;;;0.60;0.60;;;;;;;1.20;80.53;101436.56;4978269;28;20512;-58
2023/02/26 07:03:58;;;;;;;0.40;0.40;;;;;;;1.02;80.79;101442.47;4975518;28;20038;-59
2023/02/26 07:06:23;;;;;;;0.35;0.35;;;;;;;0.69;81.89;101435.94;4979654;28;20031;-54
2023/02/26 07:08:49;;;;;;;0.40;0.40;;;;;;;0.80;82.23;101434.84;4982590;28;20118;-59
2023/02/26 07:11:14;;;;;;;0.30;0.30;;;;;;;0.98;81.85;101444.88;4996228;28;20041;-56
2023/02/26 07:13:40;;;;;;;0.40;0.40;;;;;;;1.13;81.84;101449.31;5000602;28;20133;-52
2023/02/26 07:16:06;;;;;;;0.38;0.38;;;;;;;1.18;81.26;101458.03;4998612;28;20026;-56
2023/02/26 07:18:33;;;;;;;0.30;0.30;;;;;;;1.18;80.95;101457.25;4997690;28;20095;-56
2023/02/26 07:20:59;;;;;;;0.40;0.40;;;;;;;1.18;81.79;101465.97;4993124;28;20034;-55
2023/02/26 07:23:24;;;;;;;0.35;0.35;;;;;;;1.19;81.88;101462.28;5000675;28;20039;-57
2023/02/26 07:25:50;;;;;;;0.20;0.20;;;;;;;1.29;81.28;101464.88;5001057;28;20042;-55
2023/02/26 07:28:15;;;;;;;0.30;0.30;;;;;;;1.38;81.44;101470.41;4999313;28;20048;-55
2023/02/26 07:30:41;;;;;;;0.47;0.47;;;;;;;1.34;82.10;101483.41;4985803;28;20038;-57
2023/02/26 07:33:08;;;;;;;0.30;0.30;;;;;;;1.40;82.17;101490.28;4988783;28;20503;-53
2023/02/26 07:35:34;;;;;;;0.30;0.30;;;;;;;1.39;82.64;101488.72;4987135;28;20042;-55
2023/02/26 07:37:59;;;;;;;0.40;0.40;;;;;;;1.70;82.46;101495.41;4985824;28;20066;-54
2023/02/26 07:40:25;;;;;;;0.40;0.40;;;;;;;1.81;80.70;101494.31;4983299;28;20066;-54
2023/02/26 07:42:50;;;;;;;0.25;0.25;;;;;;;1.79;81.19;101496.44;4988180;28;20460;-57
2023/02/26 07:45:21;;;;;;;1.23;0.60;;;;;;;2.02;80.99;101505.59;4987504;28;20065;-55
2023/02/26 07:47:47;;;;;;;0.30;0.30;;;;;;;2.28;80.83;101508.84;4988412;28;20030;-57
2023/02/26 07:50:13;;;;;;;0.30;0.30;;;;;;;2.52;80.10;101504.38;4980481;28;20038;-55
2023/02/26 07:52:39;;;;;;;0.40;0.40;;;;;;;2.81;79.46;101502.50;4984889;28;20046;-58
2023/02/26 07:55:05;;;;;;;0.50;0.50;;;;;;;3.15;78.38;101510.38;4983923;28;20117;-60
2023/02/26 07:57:30;;;;;;;0.30;0.30;;;;;;;3.44;77.00;101505.78;4973548;28;20508;-57
2023/02/26 07:59:56;;;;;;;0.40;0.40;;;;;;;3.65;76.01;101510.56;4979384;28;20458;-57
2023/02/26 08:02:22;;;;;;;0.30;0.30;;;;;;;3.86;74.60;101520.91;4980224;28;20038;-58
2023/02/26 08:04:48;;;;;;;0.30;0.30;;;;;;;4.03;73.19;101518.53;4976635;28;20035;-58
2023/02/26 08:07:13;;;;;;;0.30;0.30;;;;;;;4.08;72.22;101526.44;4983696;28;20156;-59
2023/02/26 08:09:39;;;;;;;0.32;0.32;;;;;;;4.19;70.42;101526.00;4989805;28;20042;-58
2023/02/26 08:12:04;;;;;;;0.30;0.30;;;;;;;4.41;70.56;101530.72;4981801;28;20730;-60
2023/02/26 08:14:30;;;;;;;0.40;0.40;;;;;;;4.61;70.42;101529.59;5007978;28;20040;-58
2023/02/26 08:16:55;;;;;;;0.30;0.30;;;;;;;4.76;69.30;101526.66;4990550;28;20034;-61
2023/02/26 08:19:21;;;;;;;0.40;0.40;;;;;;;4.98;68.81;101530.25;4989499;28;20133;-58
2023/02/26 08:21:46;;;;;;;0.30;0.30;;;;;;;5.18;68.18;101529.88;5005726;28;20037;-57
2023/02/26 08:24:12;;;;;;;0.30;0.30;;;;;;;5.23;67.37;101528.97;5014646;28;20109;-60
2023/02/26 08:26:37;;;;;;;0.30;0.30;;;;;;;5.31;66.89;101529.06;4990535;28;20539;-54
2023/02/26 08:29:04;;;;;;;0.28;0.28;;;;;;;5.37;67.26;101535.91;4996507;28;20068;-61
2023/02/26 08:31:33;;;;;;;0.30;0.30;;;;;;;5.58;67.14;101548.81;4994758;28;20058;-57
2023/02/26 08:33:59;;;;;;;0.85;0.85;;;;;;;5.79;66.30;101547.31;4980182;28;20109;-60
2023/02/26 08:36:25;;;;;;;0.30;0.30;;;;;;;5.94;66.06;101558.47;4981541;28;20556;-60
2023/02/26 08:38:53;;;;;;;0.30;0.30;;;;;;;6.15;64.95;101564.97;4980124;28;20117;-60
2023/02/26 08:41:18;;;;;;;0.30;0.30;;;;;;;6.29;64.17;101571.06;4976935;28;20054;-60
2023/02/26 08:43:44;;;;;;;0.30;0.30;;;;;;;6.36;63.74;101573.31;4985650;28;20536;-58
2023/02/26 08:46:09;;;;;;;0.20;0.20;;;;;;;6.58;63.95;101580.56;4993933;28;20408;-57
2023/02/26 08:48:35;;;;;;;1.17;0.30;;;;;;;6.71;63.18;101591.19;4992434;28;20101;-59
2023/02/26 08:51:01;;;;;;;0.20;0.20;;;;;;;6.72;61.54;101590.09;4979867;28;20049;-58
2023/02/26 08:53:26;;;;;;;0.20;0.20;;;;;;;6.77;62.16;101595.31;4988446;28;20029;-57
2023/02/26 08:55:52;;;;;;;0.20;0.20;;;;;;;6.90;61.26;101602.50;4993700;28;20041;-57
2023/02/26 08:58:19;;;;;;;0.20;0.20;;;;;;;6.95;60.93;101602.34;4993386;28;20054;-58
2023/02/26 09:00:45;;;;;;;0.20;0.20;;;;;;;7.11;60.82;101606.22;4985028;28;20031;-58
2023/02/26 09:03:11;;;;;;;0.38;0.38;;;;;;;7.19;60.30;101594.75;4987159;28;20481;-56
2023/02/26 09:05:37;;;;;;;0.10;0.10;;;;;;;7.34;59.84;101606.94;4986889;28;20026;-57
2023/02/26 09:08:03;;;;;;;0.20;0.20;;;;;;;7.50;59.23;101615.38;5002255;28;20519;-56
2023/02/26 09:10:29;;;;;;;0.50;0.20;;;;;;;7.50;57.62;101615.38;4983125;28;20076;-58
2023/02/26 09:12:54;;;;;;;0.20;0.20;;;;;;;7.52;56.73;101623.88;4990210;28;20041;-57
2023/02/26 09:15:20;;;;;;;0.17;0.17;;;;;;;7.76;56.69;101637.69;4994034;28;20481;-57
2023/02/26 09:17:47;;;;;;;0.20;0.20;;;;;;;7.86;55.08;101640.06;5003743;28;20041;-58
2023/02/26 09:20:14;;;;;;;0.57;0.30;;;;;;;8.10;55.00;101637.75;5003901;28;20038;-58
2023/02/26 09:22:40;;;;;;;0.30;0.30;;;;;;;8.23;54.74;101640.31;4995223;28;20038;-56
2023/02/26 09:25:06;;;;;;;0.52;0.52;;;;;;;8.27;53.61;101642.38;4973422;28;20054;-59
2023/02/26 09:27:32;;;;;;;0.20;0.20;;;;;;;8.45;53.64;101652.03;4982466;28;20037;-57
2023/02/26 09:29:57;;;;;;;0.10;0.10;;;;;;;8.54;52.92;101656.28;4979015;28;20687;-61
2023/02/26 09:32:25;;;;;;;0.10;0.10;;;;;;;8.63;52.95;101656.31;4979612;28;20050;-58
2023/02/26 09:34:50;;;;;;;0.10;0.10;;;;;;;8.66;51.56;101653.78;4980024;28;20038;-60
2023/02/26 09:37:15;;;;;;;0.70;0.20;;;;;;;8.61;51.95;101651.25;4984710;28;20088;-55
2023/02/26 09:39:41;;;;;;;0.10;0.10;;;;;;;8.53;50.22;101656.63;4985922;28;20069;-56
2023/02/26 09:42:36;;;;;;;0.47;0.47;;;;;;;8.36;49.71;101659.28;4983975;28;20065;-57
2023/02/26 09:45:02;;;;;;;0.10;0.10;;;;;;;8.54;50.13;101671.59;4987571;28;20114;-54
2023/02/26 09:47:55;;;;;;;0.10;0.10;;;;;;;8.58;50.23;101665.28;4986888;28;20100;-56
2023/02/26 09:50:30;;;;;;;0.95;0.90;;;;;;;8.59;50.44;101669.56;4984440;28;20374;-57
2023/02/26 09:53:08;;;;;;;0.20;0.20;;;;;;;8.53;50.01;101675.41;4982399;28;20114;-59
2023/02/26 09:55:42;;;;;;;0.10;0.10;;;;;;;8.65;49.55;101670.19;4985852;28;20042;-59
2023/02/26 09:58:23;;;;;;;0.20;0.20;;;;;;;8.51;49.55;101665.00;4979933;28;20066;-61
2023/02/26 10:01:12;;;;;;;0.38;0.38;;;;;;;8.56;49.51;101669.41;5016997;22;20134;-70
2023/02/26 10:03:55;;;;;;;0.10;0.10;;;;;;;8.46;50.01;101675.88;5001067;28;20505;-71
2023/02/26 10:06:28;;;;;;;0.20;0.20;;;;;;;8.47;49.32;101682.81;4984079;28;20180;-72
2023/02/26 10:09:11;;;;;;;0.10;0.10;;;;;;;8.61;48.90;101688.84;4995880;28;20035;-73
2023/02/26 10:11:59;;;;;;;0.15;0.15;;;;;;;8.54;48.52;101676.97;4984503;28;20092;-69
2023/02/26 10:14:51;;;;;;;0.20;0.20;;;;;;;8.74;48.43;101679.84;4980500;28;20129;-71
2023/02/26 10:17:39;;;;;;;0.10;0.10;;;;;;;8.27;47.38;101674.56;4986079;28;20032;-71
2023/02/26 10:20:16;;;;;;;0.10;0.10;;;;;;;8.38;48.96;101679.31;4984984;28;20030;-71
2023/02/26 10:23:06;;;;;;;0.13;0.13;;;;;;;8.58;48.09;101678.72;4984420;28;20038;-72
2023/02/26 10:26:01;;;;;;;0.10;0.10;;;;;;;8.35;48.06;101685.34;4978069;28;20031;-71
2023/02/26 10:28:29;;;;;;;0.20;0.20;;;;;;;8.37;47.79;101685.81;4925331;28;20043;-71
2023/02/26 10:31:18;;;;;;;0.10;0.10;;;;;;;8.15;48.95;101688.56;4988350;28;20545;-70
2023/02/26 10:34:21;;;;;;;0.20;0.20;;;;;;;8.32;49.27;101691.34;4986828;28;20046;-71
2023/02/26 10:37:01;;;;;;;0.20;0.20;;;;;;;8.59;48.61;101691.06;4985166;28;20035;-71
2023/02/26 10:39:48;;;;;;;0.30;0.30;;;;;;;8.68;48.92;101699.09;4980898;28;20765;-72
2023/02/26 10:42:47;;;;;;;0.10;0.10;;;;;;;8.48;50.29;101703.19;4981789;28;20046;-70
2023/02/26 10:45:30;;;;;;;0.40;0.40;;;;;;;8.34;49.20;101717.84;4978992;28;20045;-69
2023/02/26 10:48:16;;;;;;;0.10;0.10;;;;;;;8.15;49.62;101710.03;4970984;28;20042;-71
2023/02/26 10:50:51;;;;;;;0.10;0.10;;;;;;;8.05;50.34;101723.75;4981139;28;20582;-72
2023/02/26 10:53:17;;;;;;;0.20;0.20;;;;;;;7.74;51.51;101723.00;4980134;28;20066;-69
2023/02/26 10:55:49;;;;;;;0.20;0.20;;;;;;;7.73;51.27;101721.41;4995814;28;20549;-71
2023/02/26 10:58:25;;;;;;;0.10;0.10;;;;;;;7.58;51.69;101716.44;4979249;28;20496;-70
2023/02/26 11:00:53;;;;;;;0.20;0.20;;;;;;;7.71;51.84;101720.91;4978277;28;20045;-71
2023/02/26 11:03:29;;;;;;;1.02;1.02;;;;;;;7.86;51.70;101710.56;4980071;28;20039;-71
2023/02/26 11:05:55;;;;;;;0.20;0.20;;;;;;;7.85;51.53;101719.75;4994829;28;20041;-71
2023/02/26 11:08:32;;;;;;;0.20;0.20;;;;;;;7.91;51.61;101723.06;4978507;28;20030;-72
2023/02/26 11:11:03;;;;;;;0.20;0.20;;;;;;;7.99;52.17;101711.59;4964532;28;20035;-71
2023/02/26 11:13:30;;;;;;;;;;;;;;;8.27;52.39;101717.50;4955315;28;20434;-69
2023/02/26 11:16:00;;;;;;;0.20;0.20;;;;;;;8.20;51.67;101718.75;4980875;28;20325;-70
2023/02/26 11:18:39;;;;;;;0.10;0.10;;;;;;;8.19;51.97;101719.84;4977894;28;20116;-70
2023/02/26 11:21:07;;;;;;;0.10;0.10;;;;;;;7.93;51.77;101718.19;4976249;28;20697;-71
2023/02/26 11:23:33;;;;;;;0.47;0.20;;;;;;;8.01;52.05;101718.19;4985635;28;20034;-70
2023/02/26 11:26:05;;;;;;;0.10;0.10;;;;;;;7.98;51.74;101712.66;4985532;28;20041;-69
2023/02/26 11:28:36;;;;;;;0.20;0.20;;;;;;;7.65;52.69;101728.31;4982947;28;20065;-70
2023/02/26 11:31:08;;;;;;;0.40;0.40;;;;;;;7.81;53.67;101717.97;4995609;28;20034;-70
2023/02/26 11:33:38;;;;;;;0.30;0.30;;;;;;;7.88;53.47;101718.31;4988169;28;20161;-71
2023/02/26 11:36:13;;;;;;;0.40;0.40;;;;;;;8.13;52.45;101725.66;4980267;28;20447;-71
2023/02/26 11:38:39;;;;;;;0.20;0.20;;;;;;;8.23;52.79;101730.72;4985175;28;20293;-71
2023/02/26 11:41:06;;;;;;;0.10;0.10;;;;;;;8.32;52.10;101723.53;4985072;28;20052;-71
2023/02/26 11:44:03;;;;;;;0.30;0.20;;;;;;;8.36;52.72;101739.81;4989841;28;20494;-70
2023/02/26 11:46:29;;;;;;;0.20;0.20;;;;;;;8.43;52.44;101734.75;4987518;28;20042;-71
2023/02/26 11:48:57;;;;;;;0.20;0.20;;;;;;;8.32;51.20;101728.13;4988117;28;20126;-71
2023/02/26 11:51:25;;;;;;;0.20;0.20;;;;;;;8.11;51.64;101727.84;4986476;28;20033;-70